createdAt,value
2022-12-18T00:01:28.029Z,-3.65
2022-12-18T00:03:56.925Z,-3.68
2022-12-18T00:06:25.911Z,-3.75
2022-12-18T00:08:53.333Z,-3.81
2022-12-18T00:11:22.740Z,-3.86
2022-12-18T00:13:50.176Z,-3.73
2022-12-18T00:16:21.813Z,-3.81
2022-12-18T00:18:50.908Z,-3.77
2022-12-18T00:21:19.338Z,-3.77
2022-12-18T00:23:47.862Z,-3.79
2022-12-18T00:26:18.385Z,-3.85
2022-12-18T00:28:46.630Z,-3.87
2022-12-18T00:31:16.851Z,-3.88
2022-12-18T00:33:44.479Z,-3.86
2022-12-18T00:36:20.067Z,-3.83
2022-12-18T00:38:48.435Z,-3.91
2022-12-18T00:41:37.965Z,-3.89
2022-12-18T00:44:06.722Z,-3.89
2022-12-18T00:46:34.635Z,-3.94
2022-12-18T00:49:01.703Z,-3.90
2022-12-18T00:51:29.754Z,-3.92
2022-12-18T00:53:57.094Z,-3.91
2022-12-18T00:56:24.809Z,-3.97
2022-12-18T00:58:53.152Z,-3.96
2022-12-18T01:01:20.846Z,-4.00
2022-12-18T01:03:48.058Z,-4.07
2022-12-18T01:06:17.688Z,-4.14
2022-12-18T01:08:44.967Z,-4.13
2022-12-18T01:11:19.085Z,-4.11
2022-12-18T01:13:46.897Z,-4.14
2022-12-18T01:16:16.196Z,-4.01
2022-12-18T01:18:43.422Z,-4.02
2022-12-18T01:21:14.213Z,-4.06
2022-12-18T01:23:42.087Z,-3.98
2022-12-18T01:26:15.867Z,-3.94
2022-12-18T01:28:44.773Z,-3.96
2022-12-18T01:31:13.189Z,-3.90
2022-12-18T01:33:41.126Z,-3.91
2022-12-18T01:36:08.905Z,-3.98
2022-12-18T01:38:35.990Z,-3.95
2022-12-18T01:41:03.820Z,-4.06
2022-12-18T01:43:51.072Z,-4.09
2022-12-18T01:46:21.120Z,-4.09
2022-12-18T01:48:51.738Z,-4.00
2022-12-18T01:51:19.415Z,-4.04
2022-12-18T01:53:49.486Z,-4.06
2022-12-18T01:56:18.855Z,-4.13
2022-12-18T01:59:05.673Z,-4.08
2022-12-18T02:01:33.817Z,-4.03
2022-12-18T02:04:24.561Z,-4.09
2022-12-18T02:07:25.523Z,-4.12
2022-12-18T02:10:15.809Z,-4.08
2022-12-18T02:13:01.870Z,-4.15
2022-12-18T02:15:43.628Z,-4.17
2022-12-18T02:18:16.997Z,-4.10
2022-12-18T02:20:55.798Z,-4.15
2022-12-18T02:23:29.363Z,-4.16
2022-12-18T02:26:31.908Z,-4.15
2022-12-18T02:29:18.739Z,-4.17
2022-12-18T02:31:54.727Z,-4.15
2022-12-18T02:34:27.470Z,-4.18
2022-12-18T02:36:57.628Z,-4.09
2022-12-18T02:39:30.438Z,-4.18
2022-12-18T02:41:59.511Z,-4.06
2022-12-18T02:44:27.286Z,-4.09
2022-12-18T02:46:55.405Z,-4.19
2022-12-18T02:49:37.920Z,-4.17
2022-12-18T02:52:14.479Z,-4.17
2022-12-18T02:54:58.790Z,-4.10
2022-12-18T02:57:35.494Z,-4.08
2022-12-18T03:00:09.937Z,-4.12
2022-12-18T03:02:55.360Z,-4.12
2022-12-18T03:05:32.503Z,-4.03
2022-12-18T03:08:14.939Z,-4.18
2022-12-18T03:11:02.189Z,-4.16
2022-12-18T03:13:38.475Z,-4.10
2022-12-18T03:16:10.330Z,-4.21
2022-12-18T03:18:52.661Z,-4.16
2022-12-18T03:21:24.073Z,-4.21
2022-12-18T03:23:53.942Z,-4.20
2022-12-18T03:26:25.693Z,-4.27
2022-12-18T03:28:58.586Z,-4.25
2022-12-18T03:31:32.079Z,-4.25
2022-12-18T03:34:13.494Z,-4.10
2022-12-18T03:36:41.466Z,-4.23
2022-12-18T03:39:09.066Z,-4.26
2022-12-18T03:41:49.906Z,-4.30
2022-12-18T03:44:58.836Z,-4.31
2022-12-18T03:48:01.593Z,-4.28
2022-12-18T03:50:43.010Z,-4.34
2022-12-18T03:53:47.251Z,-4.27
2022-12-18T03:56:17.304Z,-4.21
2022-12-18T03:58:46.718Z,-4.28
2022-12-18T04:01:18.591Z,-4.30
2022-12-18T04:03:49.198Z,-4.29
2022-12-18T04:06:19.060Z,-4.35
2022-12-18T04:08:48.228Z,-4.40
2022-12-18T04:11:16.539Z,-4.29
2022-12-18T04:13:44.566Z,-4.40
2022-12-18T04:16:13.598Z,-4.41
2022-12-18T04:18:40.918Z,-4.44
2022-12-18T04:21:09.203Z,-4.50
2022-12-18T04:23:37.445Z,-4.39
2022-12-18T04:26:05.282Z,-4.27
2022-12-18T04:28:37.003Z,-4.41
2022-12-18T04:31:04.544Z,-4.44
2022-12-18T04:33:31.600Z,-4.54
2022-12-18T04:35:59.085Z,-4.46
2022-12-18T04:38:26.756Z,-4.46
2022-12-18T04:40:56.994Z,-4.53
2022-12-18T04:43:24.997Z,-4.57
2022-12-18T04:45:52.334Z,-4.56
2022-12-18T04:48:19.398Z,-4.51
2022-12-18T04:50:47.838Z,-4.58
2022-12-18T04:53:15.142Z,-4.61
2022-12-18T04:55:42.146Z,-4.57
2022-12-18T04:58:09.158Z,-4.52
2022-12-18T05:00:37.068Z,-4.63
2022-12-18T05:03:04.274Z,-4.58
2022-12-18T05:05:31.384Z,-4.50
2022-12-18T05:07:58.763Z,-4.42
2022-12-18T05:10:25.740Z,-4.51
2022-12-18T05:12:59.379Z,-4.61
2022-12-18T05:15:32.962Z,-4.59
2022-12-18T05:18:00.568Z,-4.72
2022-12-18T05:20:29.555Z,-4.75
2022-12-18T05:22:57.100Z,-4.68
2022-12-18T05:25:24.437Z,-4.62
2022-12-18T05:27:51.747Z,-4.65
2022-12-18T05:30:18.858Z,-4.70
2022-12-18T05:32:45.832Z,-4.68
2022-12-18T05:35:13.122Z,-4.73
2022-12-18T05:37:43.167Z,-4.69
2022-12-18T05:40:11.516Z,-4.57
2022-12-18T05:42:38.779Z,-4.49
2022-12-18T05:45:06.734Z,-4.57
2022-12-18T05:47:33.811Z,-4.72
2022-12-18T05:50:01.075Z,-4.71
2022-12-18T05:52:28.188Z,-4.75
2022-12-18T05:54:55.342Z,-4.72
2022-12-18T05:57:22.627Z,-4.77
2022-12-18T05:59:49.719Z,-4.68
2022-12-18T06:02:16.889Z,-4.76
2022-12-18T06:04:44.300Z,-4.76
2022-12-18T06:07:11.381Z,-4.66
2022-12-18T06:09:38.533Z,-4.77
2022-12-18T06:12:06.303Z,-4.77
2022-12-18T06:14:33.355Z,-4.72
2022-12-18T06:17:00.410Z,-4.74
2022-12-18T06:19:27.756Z,-4.79
2022-12-18T06:21:54.775Z,-4.77
2022-12-18T06:24:21.803Z,-4.80
2022-12-18T06:26:49.097Z,-4.79
2022-12-18T06:29:16.115Z,-4.69
2022-12-18T06:31:43.141Z,-4.72
2022-12-18T06:34:10.523Z,-4.72
2022-12-18T06:36:37.541Z,-4.65
2022-12-18T06:39:05.165Z,-4.66
2022-12-18T06:41:33.249Z,-4.72
2022-12-18T06:44:00.394Z,-4.72
2022-12-18T06:46:27.946Z,-4.64
2022-12-18T06:48:55.241Z,-4.59
2022-12-18T06:51:24.676Z,-4.50
2022-12-18T06:53:51.719Z,-4.49
2022-12-18T06:56:19.057Z,-4.50
2022-12-18T06:58:46.131Z,-4.46
2022-12-18T07:01:14.301Z,-4.34
2022-12-18T07:03:43.168Z,-4.36
2022-12-18T07:06:18.999Z,-4.33
2022-12-18T07:08:47.738Z,-4.24
2022-12-18T07:11:15.802Z,-4.15
2022-12-18T07:13:43.927Z,-4.12
2022-12-18T07:16:20.898Z,-4.17
2022-12-18T07:18:49.478Z,-4.10
2022-12-18T07:21:19.477Z,-4.11
2022-12-18T07:23:49.097Z,-4.08
2022-12-18T07:26:19.512Z,-4.10
2022-12-18T07:28:47.277Z,-4.01
2022-12-18T07:31:20.294Z,-3.96
2022-12-18T07:33:49.572Z,-3.82
2022-12-18T07:36:16.709Z,-3.87
2022-12-18T07:38:44.148Z,-3.87
2022-12-18T07:41:13.680Z,-3.69
2022-12-18T07:43:42.222Z,-3.52
2022-12-18T07:46:10.346Z,-3.63
2022-12-18T07:48:38.023Z,-3.56
2022-12-18T07:51:07.242Z,-3.57
2022-12-18T07:53:36.419Z,-3.41
2022-12-18T07:56:26.514Z,-3.35
2022-12-18T07:58:54.485Z,-3.30
2022-12-18T08:01:22.540Z,-3.28
2022-12-18T08:03:51.591Z,-3.24
2022-12-18T08:06:23.380Z,-3.23
2022-12-18T08:08:53.544Z,-3.22
2022-12-18T08:11:20.750Z,-3.07
2022-12-18T08:13:48.594Z,-3.02
2022-12-18T08:16:17.866Z,-2.99
2022-12-18T08:18:45.127Z,-2.85
2022-12-18T08:21:14.016Z,-2.78
2022-12-18T08:23:43.278Z,-2.62
2022-12-18T08:26:11.577Z,-2.62
2022-12-18T08:28:39.034Z,-2.62
2022-12-18T08:31:07.022Z,-2.50
2022-12-18T08:33:34.786Z,-2.29
2022-12-18T08:36:02.830Z,-2.27
2022-12-18T08:38:30.110Z,-2.30
2022-12-18T08:41:01.672Z,-2.17
2022-12-18T08:43:47.568Z,-2.05
2022-12-18T08:46:19.826Z,-2.07
2022-12-18T08:48:47.294Z,-2.05
2022-12-18T08:51:17.365Z,-1.97
2022-12-18T08:53:45.552Z,-1.85
2022-12-18T08:56:13.565Z,-1.78
2022-12-18T08:58:41.950Z,-1.70
2022-12-18T09:01:11.046Z,-1.73
2022-12-18T09:03:38.997Z,-1.61
2022-12-18T09:06:07.625Z,-1.38
2022-12-18T09:08:40.648Z,-1.29
2022-12-18T09:11:15.168Z,-1.24
2022-12-18T09:13:42.827Z,-1.11
2022-12-18T09:16:10.722Z,-1.08
2022-12-18T09:18:38.015Z,-0.98
2022-12-18T09:21:13.606Z,-1.01
2022-12-18T09:23:41.027Z,-0.90
2022-12-18T09:26:08.627Z,-0.79
2022-12-18T09:28:35.707Z,-0.78
2022-12-18T09:31:08.786Z,-0.75
2022-12-18T09:33:37.449Z,-0.69
2022-12-18T09:36:07.686Z,-0.41
2022-12-18T09:38:35.911Z,-0.35
2022-12-18T09:41:18.949Z,-0.29
2022-12-18T09:43:51.172Z,-0.28
2022-12-18T09:46:27.813Z,-0.25
2022-12-18T09:49:00.636Z,-0.26
2022-12-18T09:51:32.504Z,-0.18
2022-12-18T09:54:05.024Z,-0.12
2022-12-18T09:56:39.865Z,-0.19
2022-12-18T09:59:15.335Z,-0.23
2022-12-18T10:01:44.565Z,-0.16
2022-12-18T10:04:13.970Z,-0.07
2022-12-18T10:06:48.286Z,-0.07
2022-12-18T10:09:27.121Z,0.00
2022-12-18T10:12:34.456Z,0.07
2022-12-18T10:15:13.973Z,0.22
2022-12-18T10:17:52.710Z,0.37
2022-12-18T10:20:37.749Z,0.43
2022-12-18T10:23:31.195Z,0.47
2022-12-18T10:26:07.783Z,0.63
2022-12-18T10:28:38.931Z,0.69
2022-12-18T10:31:17.867Z,0.72
2022-12-18T10:33:45.223Z,0.72
2022-12-18T10:36:12.606Z,0.86
2022-12-18T10:38:40.591Z,0.75
2022-12-18T10:41:26.949Z,0.74
2022-12-18T10:44:21.428Z,0.72
2022-12-18T10:46:51.503Z,0.77
2022-12-18T10:49:22.270Z,0.63
2022-12-18T10:51:49.566Z,0.65
2022-12-18T10:54:16.712Z,0.65
2022-12-18T10:56:44.885Z,0.64
2022-12-18T10:59:15.981Z,0.68
2022-12-18T11:01:59.429Z,0.75
2022-12-18T11:04:36.256Z,0.82
2022-12-18T11:07:09.049Z,0.77
2022-12-18T11:09:39.137Z,0.56
2022-12-18T11:12:21.048Z,0.71
2022-12-18T11:14:58.632Z,0.67
2022-12-18T11:17:36.533Z,0.61
2022-12-18T11:20:11.042Z,0.70
2022-12-18T11:22:39.331Z,0.76
2022-12-18T11:28:05.924Z,0.77
2022-12-18T11:30:35.550Z,0.88
2022-12-18T11:33:15.762Z,0.94
2022-12-18T11:35:53.019Z,0.98
2022-12-18T11:38:36.760Z,1.07
2022-12-18T11:41:50.654Z,1.14
2022-12-18T11:44:29.543Z,1.22
2022-12-18T11:47:02.768Z,1.27
2022-12-18T11:49:38.032Z,1.31
2022-12-18T11:52:25.273Z,1.26
2022-12-18T11:54:54.732Z,1.31
2022-12-18T11:58:00.629Z,1.37
2022-12-18T12:00:28.170Z,1.38
2022-12-18T12:03:19.762Z,1.43
2022-12-18T12:06:30.814Z,1.37
2022-12-18T12:09:25.567Z,1.43
2022-12-18T12:11:55.327Z,1.39
2022-12-18T12:14:28.362Z,1.40
2022-12-18T12:17:20.212Z,1.39
2022-12-18T12:19:56.376Z,1.32
2022-12-18T12:22:48.539Z,1.31
2022-12-18T12:25:53.566Z,1.45
2022-12-18T12:28:53.610Z,1.49
2022-12-18T12:31:57.338Z,1.53
2022-12-18T12:34:40.462Z,1.74
2022-12-18T12:37:10.808Z,1.68
2022-12-18T12:39:41.727Z,1.71
2022-12-18T12:42:59.244Z,1.74
2022-12-18T12:45:54.088Z,1.70
2022-12-18T12:48:44.565Z,1.58
2022-12-18T12:51:24.899Z,1.60
2022-12-18T12:53:54.412Z,1.63
2022-12-18T12:56:22.445Z,1.72
2022-12-18T12:59:20.387Z,1.72
2022-12-18T13:02:06.219Z,1.69
2022-12-18T13:04:39.873Z,1.65
2022-12-18T13:07:37.538Z,1.73
2022-12-18T13:10:19.182Z,1.77
2022-12-18T13:12:59.875Z,1.85
2022-12-18T13:15:46.302Z,1.79
2022-12-18T13:18:17.891Z,1.72
2022-12-18T13:23:39.918Z,1.67
2022-12-18T13:26:09.017Z,1.61
2022-12-18T13:28:48.529Z,1.59
2022-12-18T13:31:36.635Z,1.52
2022-12-18T13:34:28.322Z,1.54
2022-12-18T13:37:18.010Z,1.51
2022-12-18T13:39:45.547Z,1.42
2022-12-18T13:42:32.920Z,1.31
2022-12-18T13:45:00.703Z,1.25
2022-12-18T13:47:38.422Z,1.23
2022-12-18T13:50:33.943Z,1.23
2022-12-18T13:53:06.022Z,1.21
2022-12-18T13:55:33.465Z,1.17
2022-12-18T13:58:08.059Z,1.14
2022-12-18T14:00:35.650Z,1.02
2022-12-18T14:03:03.151Z,0.91
2022-12-18T14:05:37.275Z,0.75
2022-12-18T14:08:09.943Z,0.81
2022-12-18T14:10:49.441Z,0.75
2022-12-18T14:13:33.260Z,0.63
2022-12-18T14:16:02.655Z,0.59
2022-12-18T14:18:39.878Z,0.60
2022-12-18T14:21:17.832Z,0.43
2022-12-18T14:23:46.021Z,0.32
2022-12-18T14:26:30.109Z,0.18
2022-12-18T14:29:19.781Z,0.15
2022-12-18T14:32:09.368Z,0.13
2022-12-18T14:34:39.570Z,0.25
2022-12-18T14:37:10.486Z,0.20
2022-12-18T14:39:37.591Z,0.14
2022-12-18T14:42:05.099Z,-0.01
2022-12-18T14:44:44.294Z,-0.08
2022-12-18T14:47:19.013Z,-0.15
2022-12-18T14:49:46.144Z,-0.25
2022-12-18T14:52:28.538Z,-0.41
2022-12-18T14:54:55.899Z,-0.53
2022-12-18T14:57:37.270Z,-0.62
2022-12-18T15:00:07.204Z,-0.72
2022-12-18T15:02:37.421Z,-0.75
2022-12-18T15:05:17.764Z,-0.87
2022-12-18T15:07:53.128Z,-0.95
2022-12-18T15:10:23.461Z,-1.07
2022-12-18T15:13:08.055Z,-1.15
2022-12-18T15:15:36.955Z,-1.25
2022-12-18T15:18:08.823Z,-1.38
2022-12-18T15:20:51.447Z,-1.48
2022-12-18T15:23:19.850Z,-1.56
2022-12-18T15:25:49.122Z,-1.65
2022-12-18T15:28:44.197Z,-1.70
2022-12-18T15:31:14.096Z,-1.82
2022-12-18T15:33:54.365Z,-1.90
2022-12-18T15:36:26.691Z,-1.93
2022-12-18T15:39:05.032Z,-1.96
2022-12-18T15:41:36.064Z,-2.02
2022-12-18T15:44:21.034Z,-2.06
2022-12-18T15:46:48.328Z,-2.02
2022-12-18T15:49:15.346Z,-2.13
2022-12-18T15:51:42.539Z,-2.22
2022-12-18T15:54:15.024Z,-2.19
2022-12-18T15:57:00.513Z,-2.24
2022-12-18T15:59:28.149Z,-2.18
2022-12-18T16:01:55.347Z,-2.26
2022-12-18T16:04:24.505Z,-2.31
2022-12-18T16:07:14.746Z,-2.37
2022-12-18T16:09:40.299Z,-2.44
2022-12-18T16:12:15.102Z,-2.48
2022-12-18T16:14:42.471Z,-2.52
2022-12-18T16:17:15.165Z,-2.58
2022-12-18T16:19:45.718Z,-2.63
2022-12-18T16:22:22.299Z,-2.67
2022-12-18T16:24:50.155Z,-2.70
2022-12-18T16:27:17.533Z,-2.68
2022-12-18T16:29:44.723Z,-2.57
2022-12-18T16:32:17.913Z,-2.69
2022-12-18T16:34:45.627Z,-2.77
2022-12-18T16:37:14.478Z,-2.79
2022-12-18T16:39:42.204Z,-2.84
2022-12-18T16:42:20.825Z,-2.90
2022-12-18T16:44:50.103Z,-2.95
2022-12-18T16:47:17.979Z,-2.98
2022-12-18T16:49:46.002Z,-3.02
2022-12-18T16:52:14.442Z,-3.09
2022-12-18T16:54:41.805Z,-3.13
2022-12-18T16:57:13.039Z,-3.13
2022-12-18T16:59:40.352Z,-3.07
2022-12-18T17:02:14.977Z,-3.12
2022-12-18T17:04:43.104Z,-3.19
2022-12-18T17:07:10.979Z,-3.23
2022-12-18T17:09:38.716Z,-3.27
2022-12-18T17:12:06.576Z,-3.32
2022-12-18T17:14:34.489Z,-3.38
2022-12-18T17:17:24.330Z,-3.33
2022-12-18T17:19:48.896Z,-3.35
2022-12-18T17:22:16.042Z,-3.40
2022-12-18T17:24:43.044Z,-3.40
2022-12-18T17:27:10.305Z,-3.32
2022-12-18T17:29:40.160Z,-3.45
2022-12-18T17:32:12.598Z,-3.54
2022-12-18T17:34:41.082Z,-3.59
2022-12-18T17:37:08.493Z,-3.61
2022-12-18T17:39:35.905Z,-3.59
2022-12-18T17:42:03.081Z,-3.59
2022-12-18T17:44:30.114Z,-3.65
2022-12-18T17:46:57.449Z,-3.60
2022-12-18T17:49:24.486Z,-3.71
2022-12-18T17:51:51.635Z,-3.74
2022-12-18T17:54:18.960Z,-3.69
2022-12-18T17:56:46.262Z,-3.81
2022-12-18T17:59:13.397Z,-3.75
2022-12-18T18:01:44.600Z,-3.85
2022-12-18T18:04:13.697Z,-3.91
2022-12-18T18:06:41.196Z,-3.94
2022-12-18T18:09:16.697Z,-3.94
2022-12-18T18:12:04.115Z,-4.01
2022-12-18T18:14:31.818Z,-4.04
2022-12-18T18:17:04.442Z,-4.03
2022-12-18T18:19:33.163Z,-4.04
2022-12-18T18:22:01.589Z,-4.05
2022-12-18T18:24:30.397Z,-4.00
2022-12-18T18:26:59.608Z,-4.05
2022-12-18T18:29:30.516Z,-4.08
2022-12-18T18:31:58.133Z,-4.12
2022-12-18T18:34:28.332Z,-4.13
2022-12-18T18:36:58.426Z,-4.17
2022-12-18T18:39:25.869Z,-4.19
2022-12-18T18:41:56.315Z,-4.23
2022-12-18T18:44:25.584Z,-4.20
2022-12-18T18:46:57.014Z,-4.21
2022-12-18T18:49:27.690Z,-4.24
2022-12-18T18:51:56.722Z,-4.26
2022-12-18T18:54:24.917Z,-4.27
2022-12-18T18:59:40.430Z,-4.31
2022-12-18T19:02:15.271Z,-4.30
2022-12-18T19:04:45.717Z,-4.33
2022-12-18T19:07:20.321Z,-4.38
2022-12-18T19:10:02.090Z,-4.42
2022-12-18T19:12:52.472Z,-4.43
2022-12-18T19:15:19.597Z,-4.42
2022-12-18T19:17:47.877Z,-4.45
2022-12-18T19:20:15.705Z,-4.45
2022-12-18T19:22:42.683Z,-4.47
2022-12-18T19:25:10.687Z,-4.49
2022-12-18T19:27:40.064Z,-4.50
2022-12-18T19:30:07.857Z,-4.52
2022-12-18T19:32:36.019Z,-4.54
2022-12-18T19:35:03.271Z,-4.58
2022-12-18T19:37:31.256Z,-4.65
2022-12-18T19:39:58.689Z,-4.63
2022-12-18T19:42:34.832Z,-4.66
2022-12-18T19:45:06.304Z,-4.67
2022-12-18T19:47:33.407Z,-4.69
2022-12-18T19:50:01.008Z,-4.71
2022-12-18T19:52:28.485Z,-4.75
2022-12-18T19:54:58.136Z,-4.72
2022-12-18T19:57:25.176Z,-4.73
2022-12-18T19:59:52.570Z,-4.75
2022-12-18T20:02:21.125Z,-4.75
2022-12-18T20:04:49.722Z,-4.74
2022-12-18T20:07:16.679Z,-4.69
2022-12-18T20:09:44.433Z,-4.67
2022-12-18T20:12:11.886Z,-4.71
2022-12-18T20:14:39.074Z,-4.73
2022-12-18T20:17:06.503Z,-4.71
2022-12-18T20:19:34.443Z,-4.77
2022-12-18T20:22:02.005Z,-4.78
2022-12-18T20:24:29.114Z,-4.78
2022-12-18T20:26:56.653Z,-4.76
2022-12-18T20:29:23.658Z,-4.76
2022-12-18T20:31:50.787Z,-4.73
2022-12-18T20:34:18.854Z,-4.70
2022-12-18T20:36:46.439Z,-4.67
2022-12-18T20:39:14.392Z,-4.68
2022-12-18T20:41:44.172Z,-4.71
2022-12-18T20:44:23.056Z,-4.61
2022-12-18T20:46:57.001Z,-4.63
2022-12-18T20:49:26.382Z,-4.62
2022-12-18T20:51:56.149Z,-4.65
2022-12-18T20:54:25.054Z,-4.69
2022-12-18T20:56:52.496Z,-4.67
2022-12-18T20:59:20.454Z,-4.66
2022-12-18T21:01:48.738Z,-4.65
2022-12-18T21:04:18.519Z,-4.63
2022-12-18T21:06:53.300Z,-4.62
2022-12-18T21:09:23.831Z,-4.67
2022-12-18T21:12:11.147Z,-4.67
2022-12-18T21:14:42.187Z,-4.64
2022-12-18T21:17:10.149Z,-4.70
2022-12-18T21:19:37.479Z,-4.68
2022-12-18T21:22:04.743Z,-4.68
2022-12-18T21:24:33.017Z,-4.72
2022-12-18T21:27:00.383Z,-4.76
2022-12-18T21:29:27.756Z,-4.84
2022-12-18T21:31:55.426Z,-4.81
2022-12-18T21:34:28.099Z,-4.80
2022-12-18T21:36:57.681Z,-4.77
2022-12-18T21:39:27.482Z,-4.77
2022-12-18T21:42:14.330Z,-4.75
2022-12-18T21:44:42.586Z,-4.71
2022-12-18T21:47:17.692Z,-4.65
2022-12-18T21:49:53.651Z,-4.65
2022-12-18T21:52:31.533Z,-4.67
2022-12-18T21:55:08.862Z,-4.67
2022-12-18T21:57:38.684Z,-4.65
2022-12-18T22:00:07.744Z,-4.66
2022-12-18T22:02:39.516Z,-4.64
2022-12-18T22:05:07.630Z,-4.65
2022-12-18T22:07:34.782Z,-4.62
2022-12-18T22:10:02.291Z,-4.65
2022-12-18T22:12:35.944Z,-4.72
2022-12-18T22:15:13.120Z,-4.72
2022-12-18T22:17:51.216Z,-4.75
2022-12-18T22:20:24.000Z,-4.76
2022-12-18T22:22:52.514Z,-4.80
2022-12-18T22:25:19.537Z,-4.82
2022-12-18T22:28:06.514Z,-4.87
2022-12-18T22:30:34.156Z,-4.88
2022-12-18T22:33:01.748Z,-4.85
2022-12-18T22:35:28.749Z,-4.87
2022-12-18T22:37:59.047Z,-4.84
2022-12-18T22:40:26.881Z,-4.84
2022-12-18T22:42:54.728Z,-4.71
2022-12-18T22:45:26.917Z,-4.78
2022-12-18T22:47:54.318Z,-4.82
2022-12-18T22:50:21.675Z,-4.87
2022-12-18T22:52:48.680Z,-4.81
2022-12-18T22:55:15.842Z,-4.73
2022-12-18T22:57:48.504Z,-4.72
2022-12-18T23:00:24.601Z,-4.76
2022-12-18T23:02:59.361Z,-4.83
2022-12-18T23:05:29.542Z,-4.85
2022-12-18T23:07:57.087Z,-4.72
2022-12-18T23:10:24.532Z,-4.73
2022-12-18T23:12:51.630Z,-4.75
2022-12-18T23:15:19.112Z,-4.76
2022-12-18T23:17:52.076Z,-4.74
2022-12-18T23:20:19.466Z,-4.75
2022-12-18T23:22:46.452Z,-4.72
2022-12-18T23:25:13.523Z,-4.66
2022-12-18T23:27:40.805Z,-4.71
2022-12-18T23:30:08.343Z,-4.72
2022-12-18T23:32:37.545Z,-4.74
2022-12-18T23:35:05.400Z,-4.74
2022-12-18T23:37:57.373Z,-4.76
2022-12-18T23:40:21.639Z,-4.77
2022-12-18T23:42:48.701Z,-4.81
2022-12-18T23:45:17.644Z,-4.81
2022-12-18T23:47:46.283Z,-4.86
2022-12-18T23:50:17.568Z,-4.82
2022-12-18T23:52:44.636Z,-4.86
2022-12-18T23:55:12.006Z,-4.96
2022-12-18T23:57:39.093Z,-5.00
